Time;durP1;ratioP1;P1;durP2;ratioP2;P2;SDS_P1;SDS_P2;PMS_P1;PMS_P2;Temp;Humidity;BMP_temperature;BMP_pressure;BME280_temperature;BME280_humidity;BME280_pressure;Samples;Min_cycle;Max_cycle;Signal;HPM_P1;HPM_P2
2023/08/22 00:00:35;;;;;;;0.10;0.10;;;;;;;;;;6252606;22;20043;-89
2023/08/22 00:03:21;;;;;;;0.13;0.13;;;;;;;;;;6278545;22;20050;-90
2023/08/22 00:05:50;;;;;;;0.10;0.10;;;;;;;;;;6252982;22;20020;-89
2023/08/22 00:08:26;;;;;;;0.10;0.10;;;;;;;;;;6261834;22;20011;-89
2023/08/22 00:10:59;;;;;;;0.20;0.20;;;;;;;;;;6252341;22;20046;-89
2023/08/22 00:13:31;;;;;;;0.15;0.15;;;;;;;;;;6251646;22;20023;-90
2023/08/22 00:16:03;;;;;;;0.20;0.20;;;;;;;;;;6252865;22;20011;-89
2023/08/22 00:18:32;;;;;;;0.10;0.10;;;;;;;;;;6251783;22;20024;-90
2023/08/22 00:21:02;;;;;;;0.20;0.20;;;;;;;;;;6250843;22;20000;-89
2023/08/22 00:23:31;;;;;;;0.10;0.10;;;;;;;;;;6253789;22;20021;-89
2023/08/22 00:25:57;;;;;;;0.10;0.10;;;;;;;;;;6276590;22;20023;-89
2023/08/22 00:28:24;;;;;;;0.10;0.10;;;;;;;;;;6250741;22;20059;-89
2023/08/22 00:30:54;;;;;;;0.10;0.10;;;;;;;;;;6250983;22;20015;-88
2023/08/22 00:33:24;;;;;;;0.20;0.20;;;;;;;;;;6276101;22;19999;-90
2023/08/22 00:35:50;;;;;;;0.10;0.10;;;;;;;;;;6250381;22;20020;-90
2023/08/22 00:38:17;;;;;;;0.13;0.13;;;;;;;;;;6251602;22;20010;-88
2023/08/22 00:40:43;;;;;;;0.22;0.22;;;;;;;;;;6226170;22;20000;-91
2023/08/22 00:43:09;;;;;;;0.03;0.03;;;;;;;;;;6249496;22;20061;-91
2023/08/22 00:45:37;;;;;;;0.20;0.20;;;;;;;;;;6251649;22;20003;-89
2023/08/22 01:01:13;;;;;;;0.25;0.25;;;;;;;;;;6301656;22;20026;-88
2023/08/22 01:03:42;;;;;;;0.10;0.10;;;;;;;;;;6250588;22;20031;-88
2023/08/22 01:06:26;;;;;;;0.10;0.10;;;;;;;;;;6250231;22;20011;-91
2023/08/22 01:09:07;;;;;;;0.10;0.10;;;;;;;;;;6251520;22;20050;-90
2023/08/22 01:11:43;;;;;;;0.10;0.10;;;;;;;;;;6252950;22;20031;-89
2023/08/22 01:14:17;;;;;;;0.10;0.10;;;;;;;;;;6275925;22;20015;-90
2023/08/22 01:16:43;;;;;;;0.10;0.10;;;;;;;;;;6252067;22;20028;-89
2023/08/22 01:21:50;;;;;;;0.10;0.10;;;;;;;;;;6301980;22;20016;-89
2023/08/22 01:24:16;;;;;;;0.20;0.20;;;;;;;;;;6276077;22;20011;-89
2023/08/22 01:26:45;;;;;;;0.20;0.20;;;;;;;;;;6250399;22;20034;-89
2023/08/22 01:29:14;;;;;;;0.30;0.30;;;;;;;;;;6251182;22;20045;-89
2023/08/22 01:32:00;;;;;;;0.20;0.20;;;;;;;;;;6226163;22;20063;-88
2023/08/22 01:34:30;;;;;;;0.20;0.20;;;;;;;;;;6252264;22;19999;-90
2023/08/22 01:37:00;;;;;;;0.10;0.10;;;;;;;;;;6276481;22;20012;-88
2023/08/22 01:39:28;;;;;;;0.10;0.10;;;;;;;;;;6250227;22;20016;-88
2023/08/22 01:41:56;;;;;;;0.13;0.13;;;;;;;;;;6276617;22;19999;-86
2023/08/22 01:44:29;;;;;;;0.10;0.10;;;;;;;;;;6249542;22;20019;-89
2023/08/22 01:46:59;;;;;;;0.00;0.00;;;;;;;;;;6274887;22;20043;-87
2023/08/22 01:49:29;;;;;;;0.10;0.10;;;;;;;;;;6276626;22;20042;-87
2023/08/22 01:51:58;;;;;;;0.17;0.17;;;;;;;;;;6248993;22;20058;-89
2023/08/22 01:54:25;;;;;;;0.20;0.20;;;;;;;;;;6250418;22;20095;-89
2023/08/22 01:56:52;;;;;;;0.10;0.10;;;;;;;;;;6251035;22;20019;-90
2023/08/22 01:59:19;;;;;;;0.10;0.10;;;;;;;;;;6249801;22;20020;-88
2023/08/22 02:01:48;;;;;;;0.17;0.17;;;;;;;;;;6251350;22;20015;-89
2023/08/22 02:04:15;;;;;;;0.05;0.05;;;;;;;;;;6251646;22;20043;-89
2023/08/22 02:06:41;;;;;;;0.10;0.10;;;;;;;;;;6249684;22;20028;-89
2023/08/22 02:09:07;;;;;;;0.20;0.20;;;;;;;;;;6276054;22;20000;-88
2023/08/22 02:11:33;;;;;;;0.10;0.10;;;;;;;;;;6251483;22;20008;-89
2023/08/22 02:14:02;;;;;;;0.20;0.20;;;;;;;;;;6250242;22;20000;-88
2023/08/22 02:16:29;;;;;;;0.20;0.20;;;;;;;;;;6252625;22;20046;-89
2023/08/22 02:18:59;;;;;;;0.10;0.10;;;;;;;;;;6278523;22;20030;-90
2023/08/22 02:21:27;;;;;;;0.17;0.17;;;;;;;;;;6251573;22;20004;-90
2023/08/22 02:23:53;;;;;;;0.10;0.10;;;;;;;;;;6253544;22;20030;-89
2023/08/22 02:26:26;;;;;;;0.20;0.20;;;;;;;;;;6254113;22;20010;-88
2023/08/22 02:28:53;;;;;;;0.10;0.10;;;;;;;;;;6251464;22;20395;-89
2023/08/22 02:31:21;;;;;;;0.20;0.20;;;;;;;;;;6279212;22;20023;-87
2023/08/22 02:33:51;;;;;;;0.20;0.20;;;;;;;;;;6277831;22;20026;-89
2023/08/22 02:36:19;;;;;;;0.10;0.10;;;;;;;;;;6252499;22;20371;-87
2023/08/22 02:38:45;;;;;;;0.05;0.05;;;;;;;;;;6252376;22;20095;-88
2023/08/22 02:41:11;;;;;;;0.10;0.10;;;;;;;;;;6222952;23;20010;-87
2023/08/22 02:43:42;;;;;;;0.17;0.17;;;;;;;;;;6209662;23;20004;-88
2023/08/22 02:46:10;;;;;;;0.25;0.25;;;;;;;;;;6192836;23;20043;-90
2023/08/22 02:48:39;;;;;;;0.20;0.20;;;;;;;;;;6194438;23;20015;-88
2023/08/22 02:51:17;;;;;;;0.20;0.20;;;;;;;;;;6216401;23;20024;-89
2023/08/22 02:53:46;;;;;;;0.20;0.20;;;;;;;;;;6169258;23;20004;-90
2023/08/22 02:56:24;;;;;;;0.28;0.28;;;;;;;;;;6218930;23;20027;-89
2023/08/22 02:58:52;;;;;;;0.30;0.30;;;;;;;;;;6193265;23;20016;-88
2023/08/22 03:01:31;;;;;;;0.20;0.20;;;;;;;;;;6235485;23;20024;-89
2023/08/22 03:03:58;;;;;;;0.10;0.10;;;;;;;;;;6192055;23;20044;-88
2023/08/22 03:09:03;;;;;;;0.30;0.30;;;;;;;;;;6264142;22;20031;-89
2023/08/22 03:11:29;;;;;;;0.20;0.20;;;;;;;;;;6247163;23;20062;-90
2023/08/22 03:16:32;;;;;;;0.10;0.10;;;;;;;;;;6248087;22;20066;-89
2023/08/22 03:18:59;;;;;;;0.20;0.20;;;;;;;;;;6245672;23;20050;-89
2023/08/22 03:21:25;;;;;;;0.20;0.20;;;;;;;;;;6223063;23;20092;-89
2023/08/22 03:24:12;;;;;;;0.10;0.10;;;;;;;;;;6250805;22;20027;-88
2023/08/22 03:26:43;;;;;;;0.10;0.10;;;;;;;;;;6223278;23;20020;-88
2023/08/22 03:29:12;;;;;;;0.00;0.00;;;;;;;;;;6221995;23;20030;-90
2023/08/22 03:31:41;;;;;;;0.10;0.10;;;;;;;;;;6221940;23;20016;-90
2023/08/22 03:34:07;;;;;;;0.20;0.20;;;;;;;;;;6222042;22;20016;-91
2023/08/22 03:36:44;;;;;;;0.20;0.20;;;;;;;;;;6267414;22;20005;-87
2023/08/22 03:39:24;;;;;;;0.20;0.20;;;;;;;;;;6250075;23;20068;-89
2023/08/22 03:41:53;;;;;;;0.15;0.15;;;;;;;;;;6221942;23;20056;-89
2023/08/22 03:44:22;;;;;;;0.20;0.20;;;;;;;;;;6243319;22;20016;-90
2023/08/22 03:46:51;;;;;;;0.20;0.20;;;;;;;;;;6248113;23;20020;-88
2023/08/22 03:49:17;;;;;;;0.30;0.30;;;;;;;;;;6222074;23;20021;-89
2023/08/22 03:51:50;;;;;;;0.20;0.20;;;;;;;;;;6220195;23;20027;-90
2023/08/22 03:54:26;;;;;;;0.20;0.20;;;;;;;;;;6249600;22;20007;-89
2023/08/22 03:57:11;;;;;;;0.10;0.10;;;;;;;;;;6249610;22;20004;-90
2023/08/22 03:59:38;;;;;;;0.20;0.20;;;;;;;;;;6247377;22;20016;-88
2023/08/22 04:02:08;;;;;;;0.25;0.25;;;;;;;;;;6221780;23;20004;-89
2023/08/22 04:04:35;;;;;;;0.32;0.32;;;;;;;;;;6222980;23;20012;-88
2023/08/22 04:07:01;;;;;;;0.20;0.20;;;;;;;;;;6247266;22;20031;-89
2023/08/22 04:09:33;;;;;;;0.20;0.20;;;;;;;;;;6222601;23;20000;-90
2023/08/22 04:12:00;;;;;;;0.10;0.10;;;;;;;;;;6218471;23;20031;-89
2023/08/22 04:14:27;;;;;;;0.10;0.10;;;;;;;;;;6219672;23;20012;-86
2023/08/22 04:17:02;;;;;;;0.20;0.20;;;;;;;;;;6247233;23;20011;-88
2023/08/22 04:19:33;;;;;;;0.20;0.20;;;;;;;;;;6245810;23;20004;-86
2023/08/22 04:22:07;;;;;;;0.15;0.15;;;;;;;;;;6246671;23;20096;-88
2023/08/22 04:24:33;;;;;;;0.10;0.10;;;;;;;;;;6221214;23;20043;-86
2023/08/22 04:27:00;;;;;;;0.10;0.10;;;;;;;;;;6221552;23;20042;-87
2023/08/22 04:29:26;;;;;;;0.20;0.20;;;;;;;;;;6222040;23;19998;-88
2023/08/22 04:31:56;;;;;;;0.20;0.20;;;;;;;;;;6246744;23;20106;-88
2023/08/22 04:34:35;;;;;;;0.10;0.10;;;;;;;;;;6246804;23;20011;-86
2023/08/22 04:37:07;;;;;;;0.30;0.30;;;;;;;;;;6247451;23;20071;-87
2023/08/22 04:39:37;;;;;;;0.35;0.35;;;;;;;;;;6273006;22;20000;-87
2023/08/22 04:42:03;;;;;;;0.25;0.25;;;;;;;;;;6247327;23;20020;-88
2023/08/22 04:44:29;;;;;;;0.20;0.20;;;;;;;;;;6221504;23;20024;-87
2023/08/22 04:46:58;;;;;;;0.20;0.20;;;;;;;;;;6221834;23;20008;-88
2023/08/22 04:49:25;;;;;;;0.10;0.10;;;;;;;;;;6243038;23;20066;-83
2023/08/22 04:51:52;;;;;;;0.13;0.13;;;;;;;;;;6220550;23;20020;-85
2023/08/22 04:54:18;;;;;;;0.20;0.20;;;;;;;;;;6220631;23;20050;-86
2023/08/22 04:56:48;;;;;;;0.20;0.20;;;;;;;;;;6220616;23;20022;-87
2023/08/22 04:59:15;;;;;;;0.20;0.20;;;;;;;;;;6246939;23;20027;-87
2023/08/22 05:04:23;;;;;;;0.22;0.22;;;;;;;;;;6302712;22;20102;-88
2023/08/22 05:06:49;;;;;;;0.30;0.30;;;;;;;;;;6226169;22;20027;-87
2023/08/22 05:09:24;;;;;;;0.20;0.20;;;;;;;;;;6270252;22;20007;-86
2023/08/22 05:11:53;;;;;;;0.20;0.20;;;;;;;;;;6250935;22;20034;-88
2023/08/22 05:14:21;;;;;;;0.20;0.20;;;;;;;;;;6200710;23;20021;-88
2023/08/22 05:16:51;;;;;;;0.20;0.20;;;;;;;;;;6191463;23;20021;-87
2023/08/22 05:19:17;;;;;;;0.28;0.28;;;;;;;;;;6212198;23;20025;-85
2023/08/22 05:21:55;;;;;;;0.20;0.20;;;;;;;;;;6215900;23;20036;-88
2023/08/22 05:24:21;;;;;;;0.20;0.20;;;;;;;;;;6189853;23;20076;-87
2023/08/22 05:26:49;;;;;;;0.20;0.20;;;;;;;;;;6190124;23;20020;-87
2023/08/22 05:29:20;;;;;;;0.20;0.20;;;;;;;;;;6190235;23;20001;-87
2023/08/22 05:31:47;;;;;;;0.25;0.25;;;;;;;;;;6167236;23;20017;-87
2023/08/22 05:34:17;;;;;;;0.30;0.30;;;;;;;;;;6216169;23;20076;-88
2023/08/22 05:36:44;;;;;;;0.30;0.30;;;;;;;;;;6212380;23;20005;-88
2023/08/22 05:39:10;;;;;;;0.20;0.20;;;;;;;;;;6189956;23;20021;-87
2023/08/22 05:41:39;;;;;;;0.10;0.10;;;;;;;;;;6190449;23;20031;-87
2023/08/22 05:44:05;;;;;;;0.20;0.20;;;;;;;;;;6188191;23;20017;-86
2023/08/22 05:46:33;;;;;;;0.20;0.20;;;;;;;;;;6189032;23;20017;-87
2023/08/22 05:48:59;;;;;;;0.10;0.10;;;;;;;;;;6189263;23;20000;-87
2023/08/22 05:51:29;;;;;;;0.10;0.10;;;;;;;;;;6189299;23;20012;-88
2023/08/22 05:54:00;;;;;;;0.22;0.22;;;;;;;;;;6189799;23;20004;-87
2023/08/22 05:56:31;;;;;;;0.13;0.13;;;;;;;;;;6215773;23;20012;-87
2023/08/22 05:58:57;;;;;;;0.20;0.20;;;;;;;;;;6211003;23;20016;-86
2023/08/22 06:01:25;;;;;;;0.15;0.15;;;;;;;;;;6188491;23;20056;-87
2023/08/22 06:03:52;;;;;;;0.17;0.17;;;;;;;;;;6210573;23;20021;-87
2023/08/22 06:06:20;;;;;;;0.30;0.30;;;;;;;;;;6186740;23;20072;-87
2023/08/22 06:08:49;;;;;;;0.20;0.20;;;;;;;;;;6188686;23;20019;-88
2023/08/22 06:11:20;;;;;;;0.10;0.10;;;;;;;;;;6185875;23;20020;-87
2023/08/22 06:13:50;;;;;;;0.10;0.10;;;;;;;;;;6186230;23;20024;-88
2023/08/22 06:16:18;;;;;;;0.10;0.10;;;;;;;;;;6188150;23;20017;-87
2023/08/22 06:18:45;;;;;;;0.10;0.10;;;;;;;;;;6187636;23;20016;-87
2023/08/22 06:21:12;;;;;;;0.20;0.20;;;;;;;;;;6183860;23;20017;-88
2023/08/22 06:23:38;;;;;;;0.10;0.10;;;;;;;;;;6185805;23;20012;-87
2023/08/22 06:26:04;;;;;;;0.20;0.20;;;;;;;;;;6187033;23;20028;-87
2023/08/22 06:28:30;;;;;;;0.20;0.20;;;;;;;;;;6187519;23;20043;-86
2023/08/22 06:31:07;;;;;;;0.10;0.10;;;;;;;;;;6186291;23;20032;-86
2023/08/22 06:33:34;;;;;;;0.10;0.10;;;;;;;;;;6211135;23;20073;-87
2023/08/22 06:36:02;;;;;;;0.10;0.10;;;;;;;;;;6186676;23;20005;-85
2023/08/22 06:38:28;;;;;;;0.20;0.20;;;;;;;;;;6184377;23;20016;-87
2023/08/22 06:40:54;;;;;;;0.13;0.13;;;;;;;;;;6185652;23;20100;-87
2023/08/22 06:43:22;;;;;;;0.13;0.13;;;;;;;;;;6162899;23;20031;-87
2023/08/22 06:45:49;;;;;;;0.30;0.30;;;;;;;;;;6162522;23;20550;-88
2023/08/22 06:48:16;;;;;;;0.10;0.10;;;;;;;;;;6186893;23;20021;-86
2023/08/22 06:50:42;;;;;;;0.10;0.10;;;;;;;;;;6185499;23;20068;-87
2023/08/22 06:53:09;;;;;;;0.15;0.15;;;;;;;;;;6185966;23;20032;-87
2023/08/22 06:55:35;;;;;;;0.10;0.10;;;;;;;;;;6185895;23;20016;-87
2023/08/22 06:58:04;;;;;;;0.10;0.10;;;;;;;;;;6186811;23;20451;-86
2023/08/22 07:00:30;;;;;;;0.10;0.10;;;;;;;;;;6187204;23;20017;-87
2023/08/22 07:06:01;;;;;;;0.10;0.10;;;;;;;;;;6237866;23;20048;-86
2023/08/22 07:08:27;;;;;;;0.10;0.10;;;;;;;;;;6187203;23;20021;-88
2023/08/22 07:11:04;;;;;;;0.00;0.00;;;;;;;;;;6213416;23;20020;-86
2023/08/22 07:13:30;;;;;;;0.08;0.08;;;;;;;;;;6186191;23;20048;-87
2023/08/22 07:15:57;;;;;;;0.10;0.10;;;;;;;;;;6189173;23;20028;-87
2023/08/22 07:18:24;;;;;;;0.20;0.20;;;;;;;;;;6188188;23;20013;-88
2023/08/22 07:20:52;;;;;;;0.20;0.20;;;;;;;;;;6186892;23;20067;-88
2023/08/22 07:23:21;;;;;;;0.00;0.00;;;;;;;;;;6188515;23;20043;-87
2023/08/22 07:25:48;;;;;;;0.10;0.10;;;;;;;;;;6187953;23;20027;-87
2023/08/22 07:28:15;;;;;;;0.20;0.20;;;;;;;;;;6188912;23;20024;-87
2023/08/22 07:30:43;;;;;;;0.10;0.10;;;;;;;;;;6187423;23;20021;-85
2023/08/22 07:33:12;;;;;;;0.20;0.20;;;;;;;;;;6186198;23;20052;-88
2023/08/22 07:35:39;;;;;;;0.10;0.10;;;;;;;;;;6184681;23;20068;-88
2023/08/22 07:38:05;;;;;;;0.20;0.20;;;;;;;;;;6186701;23;20053;-87
2023/08/22 07:40:36;;;;;;;0.20;0.20;;;;;;;;;;6188528;23;20424;-87
2023/08/22 07:43:04;;;;;;;0.10;0.10;;;;;;;;;;6186995;23;20009;-85
2023/08/22 07:45:31;;;;;;;0.10;0.10;;;;;;;;;;6186316;23;20028;-87
2023/08/22 07:47:57;;;;;;;0.40;0.40;;;;;;;;;;6185406;23;20016;-87
2023/08/22 07:50:24;;;;;;;0.10;0.10;;;;;;;;;;6187133;23;20016;-87
2023/08/22 07:52:53;;;;;;;0.10;0.10;;;;;;;;;;6212018;23;20017;-87
2023/08/22 07:55:23;;;;;;;0.17;0.17;;;;;;;;;;6211059;23;20064;-86
2023/08/22 07:57:49;;;;;;;0.20;0.20;;;;;;;;;;6186539;23;20491;-86
2023/08/22 08:00:16;;;;;;;0.10;0.10;;;;;;;;;;6161678;23;20016;-89
2023/08/22 08:02:43;;;;;;;0.20;0.20;;;;;;;;;;6187151;23;20017;-86
2023/08/22 08:05:12;;;;;;;0.03;0.03;;;;;;;;;;6212492;23;19997;-86
2023/08/22 08:07:40;;;;;;;0.00;0.00;;;;;;;;;;6187802;23;20040;-87
2023/08/22 08:10:09;;;;;;;0.00;0.00;;;;;;;;;;6187402;23;20017;-86
2023/08/22 08:12:35;;;;;;;0.00;0.00;;;;;;;;;;6187495;23;20015;-87
2023/08/22 08:15:03;;;;;;;0.20;0.20;;;;;;;;;;6188884;23;20024;-86
2023/08/22 08:17:30;;;;;;;0.10;0.10;;;;;;;;;;6188837;23;20017;-87
2023/08/22 08:19:56;;;;;;;0.05;0.05;;;;;;;;;;6188674;23;20509;-86
2023/08/22 08:22:23;;;;;;;0.00;0.00;;;;;;;;;;6211974;23;20325;-87
2023/08/22 08:24:49;;;;;;;0.10;0.10;;;;;;;;;;6188772;23;20023;-86
2023/08/22 08:27:15;;;;;;;0.00;0.00;;;;;;;;;;6188320;23;20011;-86
2023/08/22 08:29:45;;;;;;;0.20;0.20;;;;;;;;;;6240635;23;20023;-87
2023/08/22 08:32:11;;;;;;;0.20;0.20;;;;;;;;;;6213252;23;20020;-86
2023/08/22 08:34:37;;;;;;;0.15;0.15;;;;;;;;;;6188675;23;20020;-86
2023/08/22 08:37:08;;;;;;;0.10;0.10;;;;;;;;;;6240041;23;20016;-86
2023/08/22 08:39:45;;;;;;;0.10;0.10;;;;;;;;;;6163864;23;20059;-89
2023/08/22 08:42:12;;;;;;;0.10;0.10;;;;;;;;;;6189374;23;20007;-87
2023/08/22 08:44:38;;;;;;;0.20;0.20;;;;;;;;;;6188687;23;20452;-88
2023/08/22 08:50:08;;;;;;;0.20;0.20;;;;;;;;;;6331955;22;20047;-90
2023/08/22 08:53:02;;;;;;;0.10;0.10;;;;;;;;;;6280740;22;20025;-89
2023/08/22 08:55:33;;;;;;;0.10;0.10;;;;;;;;;;6280382;22;20015;-87
2023/08/22 08:58:00;;;;;;;0.10;0.10;;;;;;;;;;6254743;22;20045;-88
2023/08/22 09:00:31;;;;;;;0.10;0.10;;;;;;;;;;6305807;22;20019;-88
2023/08/22 09:02:57;;;;;;;0.10;0.10;;;;;;;;;;6279629;22;20015;-87
2023/08/22 09:05:29;;;;;;;0.10;0.10;;;;;;;;;;6253629;22;20026;-89
2023/08/22 09:08:32;;;;;;;0.20;0.20;;;;;;;;;;6278735;22;20022;-87
2023/08/22 09:11:08;;;;;;;0.10;0.10;;;;;;;;;;6304205;22;20018;-87
2023/08/22 09:17:00;;;;;;;0.22;0.22;;;;;;;;;;6337509;22;20053;-89
2023/08/22 09:19:55;;;;;;;0.15;0.15;;;;;;;;;;6274384;22;20046;-88
2023/08/22 09:22:28;;;;;;;0.10;0.10;;;;;;;;;;6274109;22;20015;-88
2023/08/22 09:24:54;;;;;;;0.20;0.20;;;;;;;;;;6274740;22;20019;-88
2023/08/22 09:27:34;;;;;;;0.10;0.10;;;;;;;;;;6273621;22;20039;-89
2023/08/22 09:30:04;;;;;;;0.00;0.00;;;;;;;;;;6300316;22;20085;-89
2023/08/22 09:32:30;;;;;;;0.17;0.17;;;;;;;;;;6272287;22;20003;-88
2023/08/22 09:34:58;;;;;;;0.10;0.10;;;;;;;;;;6274309;22;19999;-90
2023/08/22 09:37:33;;;;;;;0.13;0.13;;;;;;;;;;6302199;22;20026;-88
2023/08/22 09:40:03;;;;;;;0.20;0.20;;;;;;;;;;6275513;22;20007;-89
2023/08/22 09:42:35;;;;;;;0.10;0.10;;;;;;;;;;6272915;22;20011;-88
2023/08/22 09:45:31;;;;;;;0.10;0.10;;;;;;;;;;6272839;22;20062;-87
2023/08/22 09:48:02;;;;;;;0.10;0.10;;;;;;;;;;6274956;22;20069;-87
2023/08/22 09:50:59;;;;;;;0.10;0.10;;;;;;;;;;6300164;22;20492;-87
2023/08/22 09:53:28;;;;;;;0.20;0.20;;;;;;;;;;6301389;22;20021;-86
2023/08/22 09:55:54;;;;;;;0.10;0.10;;;;;;;;;;6273492;22;20041;-87
2023/08/22 09:58:22;;;;;;;0.10;0.10;;;;;;;;;;6275175;22;20350;-88
2023/08/22 10:01:23;;;;;;;0.10;0.10;;;;;;;;;;6302401;22;20022;-88
2023/08/22 10:04:27;;;;;;;0.10;0.10;;;;;;;;;;6275722;22;20460;-87
2023/08/22 10:06:54;;;;;;;0.10;0.10;;;;;;;;;;6271101;22;20410;-87
2023/08/22 10:09:23;;;;;;;0.10;0.10;;;;;;;;;;6277201;22;20023;-86
2023/08/22 10:14:57;;;;;;;0.10;0.10;;;;;;;;;;6295708;22;20019;-86
2023/08/22 10:17:26;;;;;;;0.15;0.15;;;;;;;;;;6273346;22;20354;-87
2023/08/22 10:20:29;;;;;;;0.13;0.13;;;;;;;;;;6300645;22;20022;-87
2023/08/22 10:23:15;;;;;;;0.10;0.10;;;;;;;;;;6272160;22;20011;-87
2023/08/22 10:25:50;;;;;;;0.15;0.15;;;;;;;;;;6273586;22;20098;-89
2023/08/22 10:28:41;;;;;;;0.10;0.10;;;;;;;;;;6274735;22;20015;-87
2023/08/22 10:31:17;;;;;;;0.13;0.13;;;;;;;;;;6275084;22;20030;-87
2023/08/22 10:33:52;;;;;;;0.32;0.32;;;;;;;;;;6274680;22;20015;-85
2023/08/22 10:36:18;;;;;;;0.08;0.08;;;;;;;;;;6272712;22;20060;-88
2023/08/22 10:38:48;;;;;;;0.03;0.03;;;;;;;;;;6276264;22;20022;-86
2023/08/22 10:41:14;;;;;;;0.20;0.20;;;;;;;;;;6275536;22;20094;-86
2023/08/22 10:43:42;;;;;;;0.20;0.20;;;;;;;;;;6302096;22;20038;-86
2023/08/22 10:46:08;;;;;;;0.10;0.10;;;;;;;;;;6302223;22;20482;-87
2023/08/22 10:48:34;;;;;;;0.10;0.10;;;;;;;;;;6277504;22;20027;-87
2023/08/22 10:51:30;;;;;;;0.20;0.20;;;;;;;;;;6274288;22;20045;-86
2023/08/22 10:54:23;;;;;;;0.22;0.22;;;;;;;;;;6273717;22;20007;-87
2023/08/22 10:57:10;;;;;;;0.00;0.00;;;;;;;;;;6300494;22;20098;-88
2023/08/22 10:59:57;;;;;;;0.20;0.20;;;;;;;;;;6273727;22;20015;-87
2023/08/22 11:02:24;;;;;;;0.08;0.08;;;;;;;;;;6274859;22;20016;-87
2023/08/22 11:04:52;;;;;;;0.20;0.20;;;;;;;;;;6273718;22;20023;-88
2023/08/22 11:07:22;;;;;;;0.10;0.10;;;;;;;;;;6277584;22;20030;-86
2023/08/22 11:09:49;;;;;;;0.20;0.20;;;;;;;;;;6303572;22;20086;-85
2023/08/22 11:12:19;;;;;;;0.20;0.20;;;;;;;;;;6275757;22;20015;-87
2023/08/22 11:14:47;;;;;;;0.10;0.10;;;;;;;;;;6277988;22;20018;-87
2023/08/22 11:17:44;;;;;;;0.10;0.10;;;;;;;;;;6303262;22;20055;-87
2023/08/22 11:20:42;;;;;;;0.05;0.05;;;;;;;;;;6278950;22;20015;-86
2023/08/22 11:23:09;;;;;;;0.10;0.10;;;;;;;;;;6279275;22;20084;-87
2023/08/22 11:25:37;;;;;;;0.10;0.10;;;;;;;;;;6279170;22;20408;-86
2023/08/22 11:28:08;;;;;;;0.10;0.10;;;;;;;;;;6276215;22;20019;-87
2023/08/22 11:30:37;;;;;;;0.10;0.10;;;;;;;;;;6276134;22;20050;-86
2023/08/22 11:33:04;;;;;;;0.08;0.08;;;;;;;;;;6299106;22;20026;-87
2023/08/22 11:35:31;;;;;;;0.10;0.10;;;;;;;;;;6272984;22;20003;-87
2023/08/22 11:37:59;;;;;;;0.28;0.28;;;;;;;;;;6286829;22;20039;-86
2023/08/22 11:40:26;;;;;;;0.13;0.13;;;;;;;;;;6267576;22;20393;-87
2023/08/22 11:43:00;;;;;;;0.10;0.10;;;;;;;;;;6264903;22;20015;-86
2023/08/22 11:45:26;;;;;;;0.20;0.20;;;;;;;;;;6298073;22;20015;-85
2023/08/22 11:47:52;;;;;;;0.20;0.20;;;;;;;;;;6298230;22;20015;-86
2023/08/22 11:53:30;;;;;;;0.10;0.10;;;;;;;;;;6292492;22;20019;-87
2023/08/22 11:55:57;;;;;;;0.20;0.20;;;;;;;;;;6297233;22;20020;-86
2023/08/22 11:58:23;;;;;;;0.10;0.10;;;;;;;;;;6268998;22;20015;-86
2023/08/22 12:00:54;;;;;;;0.05;0.05;;;;;;;;;;6273550;22;20045;-87
2023/08/22 12:27:59;;;;;;;;;;;;;;;;;;;;;
2023/08/22 12:31:08;;;;;;;0.00;0.00;;;;;;;;;;5970453;24;20020;-90
2023/08/22 12:37:28;;;;;;;0.10;0.10;;;;;;;;;;6098336;23;20068;-90
2023/08/22 12:40:08;;;;;;;0.00;0.00;;;;;;;;;;6059217;23;20025;-89
2023/08/22 12:42:42;;;;;;;0.00;0.00;;;;;;;;;;6215696;22;20019;-89
2023/08/22 12:48:15;;;;;;;0.05;0.05;;;;;;;;;;6145347;23;20018;-91
2023/08/22 12:50:44;;;;;;;0.10;0.10;;;;;;;;;;6198406;23;20031;-90
2023/08/22 12:53:43;;;;;;;0.10;0.10;;;;;;;;;;6240143;22;20003;-89
2023/08/22 12:59:04;;;;;;;0.05;0.05;;;;;;;;;;6298891;22;20020;-89
2023/08/22 13:01:35;;;;;;;0.10;0.10;;;;;;;;;;6299686;22;20005;-91
2023/08/22 13:04:17;;;;;;;0.10;0.10;;;;;;;;;;6264804;22;20050;-90
2023/08/22 13:06:50;;;;;;;0.15;0.15;;;;;;;;;;6265096;22;20015;-90
2023/08/22 13:09:19;;;;;;;0.00;0.00;;;;;;;;;;6323468;22;20016;-90
2023/08/22 13:11:45;;;;;;;0.10;0.10;;;;;;;;;;6267204;22;20019;-89
2023/08/22 13:14:11;;;;;;;0.10;0.10;;;;;;;;;;6263096;22;20022;-89
2023/08/22 13:16:38;;;;;;;0.15;0.15;;;;;;;;;;6269802;22;20521;-89
2023/08/22 13:19:04;;;;;;;0.08;0.08;;;;;;;;;;6270630;22;20041;-89
2023/08/22 13:21:34;;;;;;;0.10;0.10;;;;;;;;;;6296149;22;20008;-88
2023/08/22 13:24:00;;;;;;;0.10;0.10;;;;;;;;;;6274049;22;20060;-90
2023/08/22 13:26:27;;;;;;;0.10;0.10;;;;;;;;;;6268761;22;20041;-90
2023/08/22 13:28:54;;;;;;;0.10;0.10;;;;;;;;;;6274008;22;20033;-89
2023/08/22 13:31:21;;;;;;;0.10;0.10;;;;;;;;;;6278311;22;20003;-91
2023/08/22 14:34:57;;;;;;;0.00;0.00;;;;;;;;;;6325378;22;20022;-89
2023/08/22 14:37:23;;;;;;;0.00;0.00;;;;;;;;;;6261772;22;20015;-88
2023/08/22 14:39:49;;;;;;;0.10;0.10;;;;;;;;;;6239297;22;20050;-89
2023/08/22 14:42:15;;;;;;;0.00;0.00;;;;;;;;;;6239043;22;20011;-90
2023/08/22 14:44:42;;;;;;;0.10;0.10;;;;;;;;;;6265737;22;20023;-89
2023/08/22 14:47:09;;;;;;;0.10;0.10;;;;;;;;;;6289829;22;20015;-89
2023/08/22 14:49:35;;;;;;;0.00;0.00;;;;;;;;;;6263548;22;20077;-89
2023/08/22 14:52:01;;;;;;;0.00;0.00;;;;;;;;;;6263385;22;20015;-90
2023/08/22 14:54:28;;;;;;;0.00;0.00;;;;;;;;;;6264044;22;20018;-90
2023/08/22 14:56:54;;;;;;;0.10;0.10;;;;;;;;;;6264272;22;20019;-90
2023/08/22 14:59:21;;;;;;;0.10;0.10;;;;;;;;;;6269041;22;19999;-90
2023/08/22 15:01:48;;;;;;;0.10;0.10;;;;;;;;;;6279928;22;20015;-91
2023/08/22 15:04:14;;;;;;;0.05;0.05;;;;;;;;;;6263421;22;20390;-89
2023/08/22 15:06:40;;;;;;;0.10;0.10;;;;;;;;;;6264830;22;20021;-89
2023/08/22 15:09:07;;;;;;;0.00;0.00;;;;;;;;;;6266636;22;20019;-90
2023/08/22 15:11:33;;;;;;;0.10;0.10;;;;;;;;;;6265059;22;20019;-88
2023/08/22 15:13:59;;;;;;;0.00;0.00;;;;;;;;;;6265422;22;20011;-89
2023/08/22 15:16:25;;;;;;;0.00;0.00;;;;;;;;;;6291578;22;20046;-89
2023/08/22 15:18:52;;;;;;;0.10;0.10;;;;;;;;;;6263770;22;20094;-89
2023/08/22 15:21:18;;;;;;;0.20;0.20;;;;;;;;;;6262270;22;20015;-89
2023/08/22 15:23:44;;;;;;;0.10;0.10;;;;;;;;;;6264318;22;20022;-88
2023/08/22 15:26:10;;;;;;;0.03;0.03;;;;;;;;;;6267369;22;20015;-88
2023/08/22 15:28:36;;;;;;;0.15;0.15;;;;;;;;;;6264980;22;20019;-89
2023/08/22 15:31:02;;;;;;;0.00;0.00;;;;;;;;;;6291053;22;20037;-90
2023/08/22 15:33:29;;;;;;;0.10;0.10;;;;;;;;;;6262778;22;20097;-89
2023/08/22 15:35:59;;;;;;;0.03;0.03;;;;;;;;;;6269916;22;20099;-90
2023/08/22 15:38:30;;;;;;;0.03;0.03;;;;;;;;;;6265055;22;20015;-89
2023/08/22 15:40:56;;;;;;;0.10;0.10;;;;;;;;;;6263590;22;20015;-90
2023/08/22 15:43:23;;;;;;;0.00;0.00;;;;;;;;;;6264176;22;20020;-88
2023/08/22 15:45:51;;;;;;;0.00;0.00;;;;;;;;;;6237069;22;20450;-89
2023/08/22 15:48:17;;;;;;;0.10;0.10;;;;;;;;;;6264789;22;20098;-90
2023/08/22 15:50:43;;;;;;;0.00;0.00;;;;;;;;;;6263111;22;20030;-89
2023/08/22 15:53:21;;;;;;;0.00;0.00;;;;;;;;;;6262173;22;20041;-90
2023/08/22 15:55:47;;;;;;;0.10;0.10;;;;;;;;;;6260934;22;20362;-89
2023/08/22 15:58:13;;;;;;;0.00;0.00;;;;;;;;;;6262991;22;20064;-89
2023/08/22 16:00:42;;;;;;;0.10;0.10;;;;;;;;;;6262231;22;20019;-89
2023/08/22 16:03:08;;;;;;;0.03;0.03;;;;;;;;;;6262984;22;20050;-88
2023/08/22 16:05:35;;;;;;;0.05;0.05;;;;;;;;;;6267528;22;19999;-89
2023/08/22 16:08:02;;;;;;;0.10;0.10;;;;;;;;;;6271073;22;20011;-88
2023/08/22 16:10:29;;;;;;;0.10;0.10;;;;;;;;;;6271154;22;20015;-89
2023/08/22 16:12:57;;;;;;;0.00;0.00;;;;;;;;;;6250988;22;20016;-89
2023/08/22 16:15:23;;;;;;;0.00;0.00;;;;;;;;;;6273891;22;20045;-89
2023/08/22 16:17:49;;;;;;;0.00;0.00;;;;;;;;;;6276773;22;20019;-88
2023/08/22 16:20:16;;;;;;;0.10;0.10;;;;;;;;;;6275981;22;20057;-88
2023/08/22 16:22:42;;;;;;;0.00;0.00;;;;;;;;;;6278535;22;20038;-89
2023/08/22 16:25:09;;;;;;;0.10;0.10;;;;;;;;;;6276526;22;20018;-89
2023/08/22 16:27:42;;;;;;;0.00;0.00;;;;;;;;;;6280453;22;20026;-90
2023/08/22 16:30:09;;;;;;;0.00;0.00;;;;;;;;;;6278263;22;20118;-87
2023/08/22 16:32:38;;;;;;;0.00;0.00;;;;;;;;;;6278607;22;20019;-89
2023/08/22 16:35:04;;;;;;;0.00;0.00;;;;;;;;;;6277931;22;20011;-90
2023/08/22 16:37:31;;;;;;;0.00;0.00;;;;;;;;;;6304987;22;20046;-89
2023/08/22 16:39:57;;;;;;;0.00;0.00;;;;;;;;;;6278547;22;20015;-88
2023/08/22 16:42:26;;;;;;;0.00;0.00;;;;;;;;;;6305401;22;20078;-90
2023/08/22 16:44:52;;;;;;;0.20;0.20;;;;;;;;;;6276331;22;20019;-89
2023/08/22 16:47:20;;;;;;;0.00;0.00;;;;;;;;;;6275847;22;20030;-90
2023/08/22 16:49:47;;;;;;;0.00;0.00;;;;;;;;;;6303724;22;20445;-89
2023/08/22 16:52:16;;;;;;;0.13;0.13;;;;;;;;;;6303074;22;20022;-90
2023/08/22 16:54:43;;;;;;;0.00;0.00;;;;;;;;;;6279283;22;20011;-90
2023/08/22 16:57:09;;;;;;;0.10;0.10;;;;;;;;;;6304140;22;20019;-89
2023/08/22 16:59:36;;;;;;;0.08;0.08;;;;;;;;;;6277577;22;20015;-90
2023/08/22 17:02:03;;;;;;;0.10;0.10;;;;;;;;;;6305412;22;20015;-89
2023/08/22 17:04:29;;;;;;;0.10;0.10;;;;;;;;;;6281193;22;20026;-90
2023/08/22 17:06:56;;;;;;;0.00;0.00;;;;;;;;;;6278775;22;20019;-89
2023/08/22 17:09:25;;;;;;;0.20;0.20;;;;;;;;;;6306111;22;19999;-89
2023/08/22 17:12:03;;;;;;;0.00;0.00;;;;;;;;;;6280504;22;20019;-89
2023/08/22 17:14:30;;;;;;;0.10;0.10;;;;;;;;;;6280075;22;20043;-89